Terminal Aerodrome Forecast
Issued by NWS Portland, OR

Home | Current Version | Previous Version | Text Only | Print | Product List | Glossary On
Versions: 1 2 3 4 5 6 7 8 9 10 11 12 13 14 15 16 17 18 19 20 21 22 23 24 25
726
FTUS46 KPQR 100540
TAFAST
TAF
KAST 100540Z 1006/1106 VRB03KT P6SM BKN250
     FM100700 VRB03KT P6SM OVC120
     FM101500 17007KT P6SM -DZ OVC050
     FM101900 20009G16KT P6SM -RA OVC050
     FM102200 21009G16KT P6SM -RA BKN025 OVC050
     FM110100 20007KT P6SM OVC015=

USA.gov is the U.S. government's official web portal to all federal, state and local government web resources and services.